Lynwood, Illinois
Current Conditions -  °F | °C
As of 2:35 AM on Tuesday 21 Oct 2014 (Local Time) from KIGQ Reporting Station
Overcast Overcast  
Wind Chill: 51°   Ceiling: 5000
Heat Index: 51°   Visibility: 10mi
Dew Point: 44°   Wind: 8mph
Humidity: 74%   Direction: 340°NNW
Pressure: 30.01"   Gusts: NA
Location:  41.5054°N, 87.5907°W
Report Text: KIGQ 210735Z AUTO 34007KT 10SM OVC050 11/06 A3001 RMK AO2 T01080064
Loading
Personal Weather Stations






























Interactive Weather Map
Tropical Storm Tracking
New forecast layout! Learn more

10-Day Weather Forecast

Advertisements
Track Severe Weather on mobile